Time;durP1;ratioP1;P1;durP2;ratioP2;P2;SDS_P1;SDS_P2;PMS_P1;PMS_P2;Temp;Humidity;BMP_temperature;BMP_pressure;BME280_temperature;BME280_humidity;BME280_pressure;Samples;Min_cycle;Max_cycle;Signal;HPM_P1;HPM_P2
2023/07/23 00:00:06;;;;;;;0.50;0.50;;;10.50;99.90;;;;;;5012984;28;20198;-68
2023/07/23 00:02:31;;;;;;;0.50;0.50;;;10.60;99.90;;;;;;5030165;28;20305;-67
2023/07/23 00:04:57;;;;;;;0.50;0.50;;;10.60;99.90;;;;;;5030826;28;20285;-68
2023/07/23 00:07:23;;;;;;;0.50;0.50;;;10.70;99.90;;;;;;5012690;28;20198;-68
2023/07/23 00:09:48;;;;;;;0.52;0.52;;;10.70;99.90;;;;;;5030535;28;20202;-68
2023/07/23 00:12:14;;;;;;;0.50;0.50;;;10.70;99.90;;;;;;5030849;28;20534;-68
2023/07/23 00:14:40;;;;;;;0.60;0.60;;;10.70;99.90;;;;;;5026192;28;20199;-67
2023/07/23 00:17:06;;;;;;;0.70;0.70;;;10.70;99.90;;;;;;5010941;28;20199;-69
2023/07/23 00:19:37;;;;;;;0.50;0.50;;;10.80;99.90;;;;;;5010790;28;20194;-68
2023/07/23 00:22:03;;;;;;;0.50;0.50;;;10.80;99.90;;;;;;5010270;28;20206;-68
2023/07/23 00:24:28;;;;;;;0.57;0.57;;;10.80;99.90;;;;;;5010706;28;20662;-68
2023/07/23 00:26:56;;;;;;;1.13;1.02;;;10.90;99.90;;;;;;5010760;28;20191;-67
2023/07/23 00:29:22;;;;;;;0.50;0.50;;;11.00;99.90;;;;;;4993060;28;20249;-68
2023/07/23 00:31:51;;;;;;;0.50;0.50;;;11.00;99.90;;;;;;5010686;28;20669;-68
2023/07/23 00:34:17;;;;;;;0.40;0.40;;;11.10;99.90;;;;;;5010652;28;20716;-69
2023/07/23 00:36:42;;;;;;;0.60;0.60;;;11.10;99.90;;;;;;5010056;28;20282;-68
2023/07/23 00:39:08;;;;;;;0.93;0.93;;;11.20;99.90;;;;;;5010533;28;20187;-68
2023/07/23 00:41:34;;;;;;;0.77;0.77;;;11.20;99.90;;;;;;4992614;28;20191;-68
2023/07/23 00:44:01;;;;;;;0.50;0.50;;;11.30;99.90;;;;;;5011736;28;20187;-68
2023/07/23 00:46:27;;;;;;;0.73;0.73;;;11.30;99.90;;;;;;5013925;28;20206;-68
2023/07/23 00:48:53;;;;;;;0.50;0.50;;;11.40;99.90;;;;;;4996451;28;20205;-68
2023/07/23 00:51:20;;;;;;;0.57;0.57;;;11.40;99.90;;;;;;5013558;28;20199;-70
2023/07/23 00:53:46;;;;;;;0.50;0.50;;;11.40;99.90;;;;;;4996338;28;20713;-69
2023/07/23 00:56:12;;;;;;;0.60;0.60;;;11.40;99.90;;;;;;5014630;28;20690;-68
2023/07/23 00:58:38;;;;;;;0.50;0.50;;;11.40;99.90;;;;;;5013477;28;20278;-71
2023/07/23 01:01:03;;;;;;;0.50;0.50;;;11.40;99.90;;;;;;5013460;28;20199;-71
2023/07/23 01:03:29;;;;;;;0.60;0.60;;;11.40;99.90;;;;;;5027852;23;20226;-69
2023/07/23 01:06:01;;;;;;;0.50;0.50;;;11.40;99.90;;;;;;5072718;28;20288;-70
2023/07/23 01:08:27;;;;;;;0.50;0.50;;;11.50;99.90;;;;;;5055342;28;20204;-70
2023/07/23 01:10:54;;;;;;;0.50;0.50;;;11.50;99.90;;;;;;5073744;28;20648;-70
2023/07/23 01:13:20;;;;;;;0.50;0.50;;;11.50;99.90;;;;;;5075022;28;20185;-69
2023/07/23 01:15:47;;;;;;;0.50;0.50;;;11.50;99.90;;;;;;5073584;28;20647;-69
2023/07/23 01:18:13;;;;;;;0.50;0.50;;;11.50;99.90;;;;;;5073231;28;20193;-69
2023/07/23 01:20:39;;;;;;;0.50;0.50;;;11.60;99.90;;;;;;5073583;28;20201;-69
2023/07/23 01:23:07;;;;;;;0.50;0.50;;;11.60;99.90;;;;;;5073029;28;20185;-70
2023/07/23 01:25:40;;;;;;;0.47;0.47;;;11.60;99.90;;;;;;5073168;28;20442;-69
2023/07/23 01:28:07;;;;;;;0.50;0.50;;;11.60;99.90;;;;;;5073577;28;20709;-68
2023/07/23 01:30:33;;;;;;;0.57;0.57;;;11.60;99.90;;;;;;5072416;28;20559;-69
2023/07/23 01:32:59;;;;;;;0.68;0.57;;;11.60;99.90;;;;;;5072831;28;20197;-69
2023/07/23 01:35:25;;;;;;;0.43;0.43;;;11.50;99.90;;;;;;5073274;28;20193;-69
2023/07/23 01:38:03;;;;;;;0.60;0.60;;;11.50;99.90;;;;;;5073219;28;20609;-69
2023/07/23 01:40:36;;;;;;;0.50;0.50;;;11.50;99.90;;;;;;5073166;28;20216;-69
2023/07/23 01:43:02;;;;;;;0.50;0.50;;;11.40;99.90;;;;;;5072954;28;20696;-69
2023/07/23 01:45:29;;;;;;;0.50;0.50;;;11.40;99.90;;;;;;5073274;28;20196;-69
2023/07/23 01:47:55;;;;;;;0.50;0.50;;;11.20;99.90;;;;;;5075042;28;20189;-64
2023/07/23 01:50:21;;;;;;;0.40;0.40;;;11.10;99.90;;;;;;5072259;28;20239;-65
2023/07/23 01:52:47;;;;;;;0.45;0.45;;;10.90;99.90;;;;;;5072604;28;20184;-64
2023/07/23 01:55:13;;;;;;;0.60;0.60;;;10.80;99.90;;;;;;5072583;28;20287;-64
2023/07/23 01:57:39;;;;;;;0.60;0.60;;;10.70;99.90;;;;;;5071419;28;20240;-64
2023/07/23 02:00:05;;;;;;;0.50;0.50;;;10.60;99.90;;;;;;5072367;28;20201;-64
2023/07/23 02:02:31;;;;;;;0.50;0.50;;;10.60;99.90;;;;;;5054316;28;20743;-65
2023/07/23 02:04:57;;;;;;;0.70;0.70;;;10.60;99.90;;;;;;5034403;28;20298;-65
2023/07/23 02:07:22;;;;;;;0.70;0.70;;;10.60;99.90;;;;;;5047895;28;20201;-64
2023/07/23 02:09:49;;;;;;;0.60;0.60;;;10.60;99.90;;;;;;5052044;28;20258;-65
2023/07/23 02:12:15;;;;;;;0.60;0.60;;;10.60;99.90;;;;;;5052479;28;20529;-66
2023/07/23 02:14:41;;;;;;;0.50;0.50;;;10.60;99.90;;;;;;5050486;28;20272;-65
2023/07/23 02:17:06;;;;;;;0.60;0.60;;;10.60;99.90;;;;;;5052184;28;20237;-66
2023/07/23 02:19:32;;;;;;;0.40;0.40;;;10.60;99.90;;;;;;5033207;28;20296;-66
2023/07/23 02:21:58;;;;;;;0.43;0.43;;;10.70;99.90;;;;;;5051756;28;20197;-66
2023/07/23 02:24:24;;;;;;;0.60;0.60;;;10.70;99.90;;;;;;5051587;28;20303;-64
2023/07/23 02:26:49;;;;;;;0.50;0.50;;;10.70;99.90;;;;;;5052076;28;20197;-65
2023/07/23 02:29:15;;;;;;;0.52;0.52;;;10.70;99.90;;;;;;5033834;28;20547;-65
2023/07/23 02:31:41;;;;;;;0.50;0.50;;;10.70;99.90;;;;;;5033600;28;20209;-65
2023/07/23 02:34:07;;;;;;;0.68;0.68;;;10.70;99.90;;;;;;5051285;28;20232;-65
2023/07/23 02:36:35;;;;;;;0.50;0.50;;;10.60;99.90;;;;;;5051300;28;20232;-65
2023/07/23 02:39:01;;;;;;;0.60;0.60;;;10.60;99.90;;;;;;5051682;28;20382;-65
2023/07/23 02:41:26;;;;;;;0.50;0.50;;;10.60;99.90;;;;;;5051454;28;20197;-64
2023/07/23 02:43:54;;;;;;;0.90;0.70;;;10.60;99.90;;;;;;5033905;28;20202;-65
2023/07/23 02:46:19;;;;;;;0.50;0.50;;;10.60;99.90;;;;;;5051401;28;20538;-65
2023/07/23 02:48:45;;;;;;;0.50;0.50;;;10.50;99.90;;;;;;5051208;28;20224;-65
2023/07/23 02:51:11;;;;;;;0.60;0.60;;;10.50;99.90;;;;;;5051835;28;20749;-64
2023/07/23 02:53:36;;;;;;;0.60;0.60;;;10.50;99.90;;;;;;5051430;28;20189;-65
2023/07/23 02:56:02;;;;;;;0.55;0.55;;;10.40;99.90;;;;;;5051281;28;20278;-64
2023/07/23 02:58:31;;;;;;;0.50;0.50;;;10.40;99.90;;;;;;5051238;28;20717;-64
2023/07/23 03:00:57;;;;;;;0.80;0.80;;;10.40;99.90;;;;;;5033017;28;20217;-65
2023/07/23 03:03:24;;;;;;;0.55;0.55;;;10.50;99.90;;;;;;5032335;28;20217;-64
2023/07/23 03:05:50;;;;;;;0.50;0.50;;;10.50;99.90;;;;;;5071046;28;20192;-64
2023/07/23 03:08:15;;;;;;;0.57;0.57;;;10.60;99.90;;;;;;5071051;28;20303;-64
2023/07/23 03:10:41;;;;;;;0.50;0.50;;;10.70;99.90;;;;;;5070965;28;20714;-64
2023/07/23 03:13:08;;;;;;;0.50;0.50;;;10.80;99.90;;;;;;5071246;28;20678;-64
2023/07/23 03:15:34;;;;;;;0.65;0.65;;;10.90;99.90;;;;;;5070637;28;20330;-65
2023/07/23 03:18:01;;;;;;;0.50;0.50;;;11.00;99.90;;;;;;5069776;28;20189;-64
2023/07/23 03:20:27;;;;;;;0.85;0.85;;;11.10;99.90;;;;;;5053078;28;20257;-65
2023/07/23 03:22:52;;;;;;;0.50;0.50;;;11.20;99.90;;;;;;5070673;28;20287;-65
2023/07/23 03:25:18;;;;;;;0.50;0.50;;;11.20;99.90;;;;;;5070844;28;20192;-64
2023/07/23 03:27:44;;;;;;;0.50;0.50;;;11.30;99.90;;;;;;5070898;28;20192;-64
2023/07/23 03:30:11;;;;;;;0.60;0.60;;;11.40;99.90;;;;;;5070143;28;20568;-64
2023/07/23 03:32:37;;;;;;;0.60;0.60;;;11.40;99.90;;;;;;5070800;28;20254;-64
2023/07/23 03:35:03;;;;;;;0.60;0.60;;;11.50;99.90;;;;;;5071000;28;20192;-64
2023/07/23 03:37:29;;;;;;;0.57;0.57;;;11.60;99.90;;;;;;5070319;28;20227;-65
2023/07/23 03:39:55;;;;;;;0.50;0.50;;;11.60;99.90;;;;;;5070702;28;20192;-65
2023/07/23 03:42:23;;;;;;;1.90;1.13;;;11.70;99.90;;;;;;5070667;28;20193;-65
2023/07/23 03:44:49;;;;;;;0.50;0.50;;;11.70;99.90;;;;;;5070771;28;20610;-64
2023/07/23 03:47:19;;;;;;;0.50;0.50;;;11.80;99.90;;;;;;5069857;28;20193;-65
2023/07/23 03:49:46;;;;;;;0.82;0.70;;;11.80;99.90;;;;;;5070342;28;20280;-65
2023/07/23 03:52:12;;;;;;;3.70;1.10;;;11.90;99.90;;;;;;5070776;28;20239;-64
2023/07/23 03:54:38;;;;;;;0.50;0.50;;;12.00;99.90;;;;;;5052446;28;20212;-65
2023/07/23 03:57:04;;;;;;;0.68;0.68;;;12.10;99.90;;;;;;5070691;28;20199;-65
2023/07/23 03:59:36;;;;;;;0.60;0.60;;;12.10;99.90;;;;;;5070247;28;20220;-65
2023/07/23 04:02:06;;;;;;;0.40;0.40;;;12.20;99.90;;;;;;5070863;28;20181;-65
2023/07/23 04:04:33;;;;;;;0.70;0.70;;;12.30;99.90;;;;;;5070341;28;20224;-65
2023/07/23 04:06:58;;;;;;;0.43;0.43;;;12.40;99.90;;;;;;5070599;28;20185;-65
2023/07/23 04:09:24;;;;;;;0.65;0.65;;;12.50;99.90;;;;;;5070407;28;20192;-65
2023/07/23 04:11:50;;;;;;;0.50;0.50;;;12.60;99.90;;;;;;5052014;28;20230;-65
2023/07/23 04:14:16;;;;;;;6.18;1.13;;;12.80;99.90;;;;;;5070537;28;20220;-65
2023/07/23 04:16:41;;;;;;;0.73;0.65;;;13.00;99.90;;;;;;5070926;28;20262;-65
2023/07/23 04:19:07;;;;;;;0.50;0.50;;;13.10;99.90;;;;;;5072131;28;20216;-66
2023/07/23 04:21:33;;;;;;;0.40;0.40;;;13.20;99.90;;;;;;5074128;28;20200;-65
2023/07/23 04:24:00;;;;;;;0.40;0.40;;;13.20;99.90;;;;;;5073962;28;20197;-65
2023/07/23 04:26:28;;;;;;;0.40;0.40;;;13.20;99.90;;;;;;5073960;28;20726;-65
2023/07/23 04:28:57;;;;;;;0.50;0.50;;;13.40;99.90;;;;;;5072541;28;20663;-65
2023/07/23 04:31:44;;;;;;;0.40;0.40;;;13.50;99.90;;;;;;5073844;28;20258;-65
2023/07/23 04:34:09;;;;;;;0.50;0.50;;;13.60;99.90;;;;;;5073420;28;20299;-65
2023/07/23 04:36:35;;;;;;;0.43;0.43;;;13.60;99.90;;;;;;5073823;28;20272;-65
2023/07/23 04:39:03;;;;;;;0.60;0.60;;;13.70;99.90;;;;;;5073842;28;20204;-66
2023/07/23 04:41:31;;;;;;;0.43;0.43;;;13.70;99.90;;;;;;5073639;28;20215;-64
2023/07/23 04:43:58;;;;;;;0.40;0.40;;;13.70;99.90;;;;;;5073655;28;20228;-65
2023/07/23 04:46:23;;;;;;;0.40;0.40;;;13.60;99.90;;;;;;5073554;28;20238;-63
2023/07/23 04:48:49;;;;;;;0.40;0.40;;;13.70;99.90;;;;;;5073954;28;20602;-63
2023/07/23 04:51:16;;;;;;;1.10;0.90;;;13.80;99.90;;;;;;5071999;28;20772;-63
2023/07/23 04:53:44;;;;;;;0.63;0.63;;;13.90;99.90;;;;;;5073115;28;20276;-64
2023/07/23 04:56:10;;;;;;;1.05;0.98;;;14.10;99.90;;;;;;5073576;28;20223;-63
2023/07/23 04:58:36;;;;;;;0.40;0.40;;;14.20;99.90;;;;;;5073335;28;20189;-65
2023/07/23 05:01:09;;;;;;;0.68;0.68;;;14.20;99.90;;;;;;5072999;28;20241;-65
2023/07/23 05:03:36;;;;;;;0.40;0.40;;;14.10;99.90;;;;;;5054619;28;20232;-65
2023/07/23 05:06:03;;;;;;;0.40;0.40;;;14.10;99.90;;;;;;5073853;28;20212;-65
2023/07/23 05:08:30;;;;;;;0.32;0.32;;;14.00;99.90;;;;;;5073764;28;20687;-64
2023/07/23 05:11:00;;;;;;;0.60;0.60;;;13.90;99.90;;;;;;5073398;28;20216;-63
2023/07/23 05:13:26;;;;;;;0.40;0.40;;;13.80;99.90;;;;;;5072958;28;20193;-63
2023/07/23 05:15:52;;;;;;;0.40;0.40;;;13.70;99.90;;;;;;5073134;28;20567;-64
2023/07/23 05:18:18;;;;;;;0.40;0.40;;;13.80;99.90;;;;;;5072990;28;20257;-64
2023/07/23 05:20:44;;;;;;;1.27;1.00;;;14.00;99.90;;;;;;5073017;28;20188;-63
2023/07/23 05:23:10;;;;;;;0.40;0.40;;;14.10;99.90;;;;;;5054978;28;20192;-64
2023/07/23 05:25:36;;;;;;;0.43;0.43;;;14.20;99.90;;;;;;5072940;28;20201;-65
2023/07/23 05:28:02;;;;;;;1.67;0.98;;;14.30;99.90;;;;;;5073145;28;20188;-64
2023/07/23 05:30:27;;;;;;;0.52;0.52;;;14.50;99.90;;;;;;5072157;28;20213;-65
2023/07/23 05:32:53;;;;;;;1.10;0.55;;;14.80;99.90;;;;;;5073630;28;20192;-65
2023/07/23 05:35:19;;;;;;;0.30;0.30;;;15.10;99.90;;;;;;5072827;28;20671;-65
2023/07/23 05:37:44;;;;;;;0.40;0.40;;;15.00;99.90;;;;;;5073043;28;20196;-65
2023/07/23 05:40:10;;;;;;;0.40;0.40;;;14.90;99.90;;;;;;5073003;28;20275;-64
2023/07/23 05:42:36;;;;;;;0.30;0.30;;;14.60;99.90;;;;;;5072057;28;20238;-64
2023/07/23 05:45:03;;;;;;;0.40;0.40;;;14.40;99.90;;;;;;5073082;28;20668;-64
2023/07/23 05:47:29;;;;;;;0.47;0.47;;;14.30;99.90;;;;;;5072565;28;20192;-64
2023/07/23 05:49:54;;;;;;;0.40;0.40;;;14.20;99.90;;;;;;5072563;28;20208;-64
2023/07/23 05:52:20;;;;;;;0.50;0.50;;;14.10;99.90;;;;;;5071999;28;20249;-64
2023/07/23 05:54:46;;;;;;;0.40;0.40;;;14.20;99.90;;;;;;5054352;28;20196;-64
2023/07/23 05:57:12;;;;;;;0.60;0.60;;;14.20;99.90;;;;;;5072876;28;20216;-63
2023/07/23 05:59:38;;;;;;;1.65;0.93;;;14.40;99.90;;;;;;5054286;28;20674;-65
2023/07/23 06:02:05;;;;;;;0.30;0.30;;;14.50;99.90;;;;;;5071192;28;20223;-64
2023/07/23 06:04:31;;;;;;;0.35;0.35;;;14.70;99.90;;;;;;5072355;28;20404;-65
2023/07/23 06:06:56;;;;;;;0.45;0.45;;;14.90;99.90;;;;;;5072118;28;20215;-65
2023/07/23 06:09:22;;;;;;;0.60;0.60;;;15.10;99.90;;;;;;5054338;28;20193;-65
2023/07/23 06:11:48;;;;;;;0.30;0.30;;;15.20;99.90;;;;;;5053631;28;20255;-64
2023/07/23 06:14:14;;;;;;;0.40;0.40;;;15.10;99.90;;;;;;5054067;28;20223;-64
2023/07/23 06:16:42;;;;;;;0.30;0.30;;;15.10;99.90;;;;;;5071962;28;20660;-64
2023/07/23 06:19:08;;;;;;;0.82;0.82;;;15.10;99.90;;;;;;5072007;28;20222;-64
2023/07/23 06:21:34;;;;;;;0.40;0.40;;;15.10;99.90;;;;;;5071381;28;20197;-65
2023/07/23 06:23:59;;;;;;;0.57;0.40;;;15.10;99.90;;;;;;5072032;28;20667;-66
2023/07/23 06:26:25;;;;;;;0.40;0.40;;;15.10;99.90;;;;;;5072247;28;20223;-66
2023/07/23 06:29:00;;;;;;;0.47;0.47;;;15.30;99.90;;;;;;5071920;28;20223;-66
2023/07/23 06:31:29;;;;;;;0.32;0.32;;;15.80;99.90;;;;;;5071553;28;20574;-66
2023/07/23 06:33:58;;;;;;;0.40;0.40;;;16.30;99.90;;;;;;5071773;28;20196;-66
2023/07/23 06:36:23;;;;;;;0.30;0.30;;;16.70;99.90;;;;;;5053738;28;20242;-66
2023/07/23 06:38:49;;;;;;;0.30;0.30;;;16.80;99.90;;;;;;5071572;28;20218;-66
2023/07/23 06:41:20;;;;;;;0.40;0.40;;;16.80;99.90;;;;;;5070828;28;20201;-65
2023/07/23 06:43:46;;;;;;;0.30;0.30;;;17.00;99.90;;;;;;5071785;28;20192;-64
2023/07/23 06:46:17;;;;;;;0.73;0.57;;;16.90;99.90;;;;;;5071309;28;20257;-65
2023/07/23 06:48:49;;;;;;;0.30;0.30;;;17.10;99.90;;;;;;5053319;28;20258;-66
2023/07/23 06:51:15;;;;;;;0.85;0.50;;;17.00;99.90;;;;;;5071311;28;20835;-65
2023/07/23 06:53:43;;;;;;;0.32;0.32;;;16.90;99.90;;;;;;5071166;28;20189;-65
2023/07/23 06:56:16;;;;;;;0.30;0.30;;;16.90;99.90;;;;;;5071832;28;20185;-65
2023/07/23 06:58:42;;;;;;;0.30;0.30;;;17.00;99.90;;;;;;5071147;28;20587;-65
2023/07/23 07:01:08;;;;;;;0.30;0.30;;;17.00;99.90;;;;;;5071248;28;20568;-65
2023/07/23 07:03:37;;;;;;;0.30;0.30;;;16.90;99.90;;;;;;5070976;28;20726;-65
2023/07/23 07:06:06;;;;;;;0.30;0.30;;;16.60;99.90;;;;;;5052978;28;20223;-64
2023/07/23 07:08:35;;;;;;;0.52;0.52;;;16.60;99.90;;;;;;5071121;28;20566;-64
2023/07/23 07:11:03;;;;;;;0.30;0.30;;;16.60;99.90;;;;;;5071153;28;20251;-64
2023/07/23 07:13:30;;;;;;;0.25;0.25;;;16.70;99.90;;;;;;5070653;28;20219;-65
2023/07/23 07:15:56;;;;;;;1.42;0.50;;;16.90;99.90;;;;;;5070375;28;20211;-65
2023/07/23 07:18:22;;;;;;;0.30;0.30;;;16.90;99.90;;;;;;5070991;28;20194;-66
2023/07/23 07:20:59;;;;;;;0.30;0.30;;;16.80;99.90;;;;;;5070694;28;20250;-65
2023/07/23 07:23:30;;;;;;;0.20;0.20;;;17.00;99.90;;;;;;5070324;28;20655;-65
2023/07/23 07:25:57;;;;;;;0.47;0.38;;;17.10;99.90;;;;;;5070551;28;20659;-65
2023/07/23 07:28:24;;;;;;;0.73;0.40;;;17.30;99.90;;;;;;5070345;28;20215;-65
2023/07/23 07:30:50;;;;;;;0.30;0.30;;;17.60;99.90;;;;;;5070576;28;20209;-65
2023/07/23 07:33:16;;;;;;;0.20;0.20;;;17.80;99.90;;;;;;5052549;28;20250;-65
2023/07/23 07:35:43;;;;;;;0.22;0.22;;;18.00;99.90;;;;;;5070512;28;20651;-66
2023/07/23 07:38:09;;;;;;;0.95;0.55;;;18.10;99.90;;;;;;5070740;28;20215;-65
2023/07/23 07:40:39;;;;;;;0.28;0.28;;;18.00;99.90;;;;;;5070432;28;20196;-65
2023/07/23 07:43:05;;;;;;;0.30;0.30;;;18.00;99.90;;;;;;5070562;28;20651;-65
2023/07/23 07:45:33;;;;;;;0.30;0.30;;;18.30;99.90;;;;;;5070066;28;20200;-65
2023/07/23 07:47:59;;;;;;;0.30;0.30;;;18.50;99.90;;;;;;5070594;28;20204;-64
2023/07/23 07:50:25;;;;;;;0.20;0.20;;;18.90;99.90;;;;;;5052647;28;20205;-64
2023/07/23 07:52:52;;;;;;;0.40;0.40;;;19.00;99.90;;;;;;5071808;28;20250;-65
2023/07/23 07:55:18;;;;;;;0.30;0.30;;;19.10;99.90;;;;;;5074354;28;20213;-65
2023/07/23 07:57:44;;;;;;;0.50;0.50;;;19.20;99.90;;;;;;5055853;28;20688;-64
2023/07/23 08:00:10;;;;;;;1.50;0.68;;;19.20;99.90;;;;;;5056420;28;20284;-66
2023/07/23 08:02:36;;;;;;;0.20;0.20;;;19.60;99.90;;;;;;5073985;28;20570;-65
2023/07/23 08:05:03;;;;;;;0.30;0.30;;;19.90;99.90;;;;;;5073922;28;20250;-65
2023/07/23 08:07:30;;;;;;;0.30;0.30;;;20.20;99.90;;;;;;5074215;28;20184;-65
2023/07/23 08:09:59;;;;;;;0.30;0.30;;;20.60;99.90;;;;;;5074251;28;20636;-65
2023/07/23 08:12:25;;;;;;;0.28;0.28;;;21.00;99.90;;;;;;5073956;28;20716;-64
2023/07/23 08:14:53;;;;;;;0.40;0.40;;;21.40;99.90;;;;;;5073961;28;20628;-65
2023/07/23 08:17:20;;;;;;;0.25;0.25;;;21.80;99.90;;;;;;5073665;28;20556;-66
2023/07/23 08:19:46;;;;;;;0.28;0.28;;;22.20;99.90;;;;;;5074042;28;20307;-64
2023/07/23 08:22:12;;;;;;;0.40;0.40;;;21.80;99.90;;;;;;5073627;28;20279;-65
2023/07/23 08:24:38;;;;;;;0.20;0.20;;;21.80;99.90;;;;;;5073776;28;20644;-65
2023/07/23 08:27:07;;;;;;;0.35;0.35;;;22.20;99.90;;;;;;5074143;28;20227;-68
2023/07/23 08:29:34;;;;;;;0.20;0.20;;;22.60;99.90;;;;;;5073536;28;20280;-67
2023/07/23 08:32:01;;;;;;;0.45;0.45;;;22.20;99.90;;;;;;5056078;28;20208;-67
2023/07/23 08:34:27;;;;;;;0.65;0.30;;;21.50;99.90;;;;;;5073782;28;20262;-67
2023/07/23 08:36:54;;;;;;;0.17;0.17;;;21.30;99.90;;;;;;5074150;28;20537;-67
2023/07/23 08:39:21;;;;;;;0.20;0.20;;;21.30;99.90;;;;;;5074152;28;20647;-66
2023/07/23 08:42:02;;;;;;;0.20;0.20;;;21.50;99.90;;;;;;5073502;28;20467;-67
2023/07/23 08:44:34;;;;;;;0.20;0.20;;;21.30;99.90;;;;;;5055463;28;20219;-67
2023/07/23 08:47:10;;;;;;;0.40;0.40;;;21.00;99.90;;;;;;5073968;28;20682;-66
2023/07/23 08:49:39;;;;;;;0.20;0.20;;;20.90;99.90;;;;;;5055293;28;20614;-66
2023/07/23 08:52:05;;;;;;;0.52;0.45;;;20.60;99.90;;;;;;5073020;28;20681;-67
2023/07/23 08:54:32;;;;;;;1.65;0.65;;;20.30;99.90;;;;;;5055453;28;20393;-66
2023/07/23 08:57:00;;;;;;;0.50;0.40;;;19.80;99.90;;;;;;5073773;28;20651;-67
2023/07/23 08:59:27;;;;;;;0.20;0.20;;;19.90;99.90;;;;;;5066540;28;20194;-67
2023/07/23 09:01:54;;;;;;;0.30;0.30;;;20.10;99.90;;;;;;5053769;28;20194;-67
2023/07/23 09:04:20;;;;;;;0.20;0.20;;;20.50;99.90;;;;;;5050701;28;20237;-68
2023/07/23 09:06:47;;;;;;;0.20;0.20;;;21.00;99.90;;;;;;5054474;28;20209;-67
2023/07/23 09:09:18;;;;;;;0.20;0.20;;;21.50;99.90;;;;;;5055893;28;20204;-68
2023/07/23 09:11:44;;;;;;;0.20;0.20;;;21.50;99.90;;;;;;5073341;28;20208;-67
2023/07/23 09:14:11;;;;;;;2.55;0.40;;;21.40;99.90;;;;;;5073148;28;20200;-68
2023/07/23 09:16:42;;;;;;;0.20;0.20;;;21.80;99.90;;;;;;5055188;28;20197;-68
2023/07/23 09:19:09;;;;;;;0.40;0.40;;;21.60;99.90;;;;;;5073796;28;20230;-68
2023/07/23 09:21:37;;;;;;;0.45;0.45;;;21.70;99.90;;;;;;5073241;28;20222;-68
2023/07/23 09:24:05;;;;;;;0.20;0.20;;;21.90;99.90;;;;;;5053138;28;20251;-67
2023/07/23 09:26:31;;;;;;;0.17;0.17;;;22.50;99.90;;;;;;5034416;28;20205;-68
2023/07/23 09:28:59;;;;;;;0.30;0.30;;;23.00;99.90;;;;;;5053000;28;20745;-68
2023/07/23 09:31:27;;;;;;;0.20;0.20;;;23.10;99.90;;;;;;5034712;28;20231;-67
2023/07/23 09:33:55;;;;;;;0.22;0.22;;;23.50;99.90;;;;;;5053043;28;20189;-67
2023/07/23 09:36:22;;;;;;;0.20;0.20;;;23.80;99.90;;;;;;5054773;28;20189;-66
2023/07/23 09:38:57;;;;;;;0.20;0.20;;;23.80;99.90;;;;;;5054717;28;20291;-67
2023/07/23 09:41:25;;;;;;;0.25;0.25;;;24.10;99.90;;;;;;5072570;28;20196;-67
2023/07/23 09:44:12;;;;;;;0.30;0.30;;;23.60;99.90;;;;;;5073112;28;20201;-66
2023/07/23 09:46:40;;;;;;;0.40;0.40;;;24.10;99.90;;;;;;5072268;28;20291;-67
2023/07/23 09:49:06;;;;;;;0.10;0.10;;;24.50;99.90;;;;;;5072615;28;20307;-67
2023/07/23 09:51:33;;;;;;;0.20;0.20;;;24.60;99.90;;;;;;5072680;28;20209;-67
2023/07/23 09:54:06;;;;;;;0.20;0.20;;;24.10;99.90;;;;;;5054715;28;20219;-66
2023/07/23 09:56:34;;;;;;;0.20;0.20;;;23.60;99.90;;;;;;5072367;28;20195;-66
2023/07/23 09:59:13;;;;;;;0.20;0.20;;;23.50;99.90;;;;;;5073664;28;20213;-66
2023/07/23 10:01:39;;;;;;;0.32;0.28;;;23.30;99.90;;;;;;5071799;28;20199;-66
2023/07/23 10:04:11;;;;;;;0.35;0.35;;;23.10;99.90;;;;;;5056464;28;20279;-66
2023/07/23 10:06:37;;;;;;;0.10;0.10;;;23.30;99.90;;;;;;5092467;28;20716;-66
2023/07/23 10:09:03;;;;;;;0.15;0.15;;;23.50;99.90;;;;;;5092365;28;20227;-67
2023/07/23 10:11:29;;;;;;;0.10;0.10;;;23.40;99.90;;;;;;5074143;28;20703;-66
2023/07/23 10:13:55;;;;;;;1.05;0.95;;;23.30;99.90;;;;;;5092016;28;20195;-67
2023/07/23 10:16:48;;;;;;;0.10;0.10;;;23.60;99.90;;;;;;5091397;28;20188;-67
2023/07/23 10:19:14;;;;;;;0.30;0.30;;;24.20;99.90;;;;;;5089672;28;20208;-66
2023/07/23 10:21:45;;;;;;;0.17;0.17;;;24.30;99.90;;;;;;5091117;28;20558;-65
2023/07/23 10:24:11;;;;;;;0.40;0.40;;;24.10;99.90;;;;;;5072360;28;20193;-65
2023/07/23 10:26:42;;;;;;;0.77;0.50;;;23.80;99.90;;;;;;5071888;28;20219;-65
2023/07/23 10:29:18;;;;;;;1.00;0.80;;;24.00;99.90;;;;;;5073211;28;20546;-64
2023/07/23 10:32:05;;;;;;;0.10;0.10;;;24.20;99.90;;;;;;5071969;28;20207;-64
2023/07/23 10:34:31;;;;;;;0.30;0.30;;;23.90;99.90;;;;;;5069771;28;20611;-65
2023/07/23 10:37:19;;;;;;;0.30;0.30;;;23.90;99.90;;;;;;5071360;28;20193;-64
2023/07/23 10:39:55;;;;;;;0.17;0.17;;;23.60;99.90;;;;;;5067703;28;20309;-65
2023/07/23 10:42:41;;;;;;;1.65;0.50;;;22.90;99.90;;;;;;5053274;28;20416;-64
2023/07/23 10:45:22;;;;;;;0.15;0.15;;;22.50;99.90;;;;;;5071106;28;20193;-65
2023/07/23 10:47:48;;;;;;;0.20;0.20;;;22.10;99.90;;;;;;5071296;28;20193;-65
2023/07/23 10:50:16;;;;;;;0.73;0.45;;;21.80;99.90;;;;;;5053380;28;20197;-65
2023/07/23 10:52:48;;;;;;;0.20;0.20;;;21.50;99.90;;;;;;5071280;28;20709;-66
2023/07/23 10:55:32;;;;;;;0.10;0.10;;;21.30;99.90;;;;;;5071527;28;20189;-65
2023/07/23 10:58:13;;;;;;;0.20;0.20;;;21.30;99.90;;;;;;5071386;28;20272;-66
2023/07/23 11:00:46;;;;;;;0.30;0.30;;;21.20;99.90;;;;;;5083467;28;20199;-68
2023/07/23 11:03:17;;;;;;;0.20;0.20;;;21.50;99.90;;;;;;5073800;28;20196;-65
2023/07/23 11:05:43;;;;;;;0.40;0.40;;;21.60;99.90;;;;;;5073574;28;20224;-65
2023/07/23 11:08:16;;;;;;;0.10;0.10;;;21.70;99.90;;;;;;5091491;28;20192;-65
2023/07/23 11:10:48;;;;;;;0.20;0.20;;;21.70;99.90;;;;;;5091423;28;20291;-65
2023/07/23 11:13:17;;;;;;;0.10;0.10;;;21.80;99.90;;;;;;5091404;28;20192;-65
2023/07/23 11:15:45;;;;;;;0.10;0.10;;;22.20;99.90;;;;;;5091320;28;20192;-65
2023/07/23 11:18:11;;;;;;;0.13;0.13;;;22.70;99.90;;;;;;5091009;28;20191;-65
2023/07/23 11:20:37;;;;;;;0.15;0.15;;;23.00;99.90;;;;;;5090802;28;20200;-64
2023/07/23 11:23:05;;;;;;;0.10;0.10;;;23.10;99.90;;;;;;5079069;28;20204;-66
2023/07/23 11:25:31;;;;;;;0.20;0.20;;;23.00;99.90;;;;;;5071206;28;20694;-66
2023/07/23 11:27:59;;;;;;;0.20;0.20;;;23.40;99.90;;;;;;5071618;28;20189;-67
2023/07/23 11:30:31;;;;;;;0.17;0.17;;;23.40;99.90;;;;;;5070483;28;20204;-66
2023/07/23 11:32:58;;;;;;;1.05;0.52;;;23.20;99.90;;;;;;5070667;28;20608;-66
2023/07/23 11:35:24;;;;;;;0.15;0.15;;;23.30;99.90;;;;;;5052871;28;20197;-66
2023/07/23 11:37:50;;;;;;;0.10;0.10;;;23.30;99.90;;;;;;5069259;28;20682;-66
2023/07/23 11:40:23;;;;;;;0.30;0.30;;;23.70;99.90;;;;;;5070888;28;20208;-66
2023/07/23 11:42:52;;;;;;;0.10;0.10;;;24.10;99.90;;;;;;5070993;28;20204;-65
2023/07/23 11:45:17;;;;;;;0.10;0.10;;;24.70;99.90;;;;;;5070895;28;20196;-67
2023/07/23 11:47:51;;;;;;;0.10;0.10;;;25.50;99.90;;;;;;5070578;28;20205;-65
2023/07/23 11:50:17;;;;;;;0.10;0.10;;;26.20;99.90;;;;;;5070797;28;20210;-66
2023/07/23 11:52:45;;;;;;;0.32;0.20;;;26.80;99.90;;;;;;5071155;28;20192;-65
2023/07/23 11:55:26;;;;;;;0.10;0.10;;;27.20;99.90;;;;;;5052830;28;20231;-66
2023/07/23 11:57:55;;;;;;;0.30;0.20;;;27.10;99.90;;;;;;5050963;28;20193;-66
2023/07/23 12:00:29;;;;;;;0.40;0.40;;;26.60;99.90;;;;;;5050500;28;20586;-66
2023/07/23 12:02:57;;;;;;;0.10;0.10;;;26.60;99.90;;;;;;5050743;28;20221;-64
2023/07/23 12:05:26;;;;;;;0.10;0.10;;;26.20;98.30;;;;;;5050313;28;20225;-65
2023/07/23 12:07:52;;;;;;;0.10;0.10;;;26.10;97.90;;;;;;5050397;28;20295;-65
2023/07/23 12:10:19;;;;;;;0.40;0.40;;;26.10;95.70;;;;;;5032309;28;20213;-65
2023/07/23 12:12:46;;;;;;;0.20;0.20;;;25.90;96.50;;;;;;5050301;28;20185;-65
2023/07/23 12:15:16;;;;;;;0.20;0.20;;;26.10;97.80;;;;;;5049959;28;20200;-65
2023/07/23 12:17:43;;;;;;;1.17;0.20;;;26.90;94.70;;;;;;5050149;28;20193;-65
2023/07/23 12:20:14;;;;;;;0.20;0.20;;;27.40;95.60;;;;;;5050316;28;20231;-65
2023/07/23 12:22:51;;;;;;;0.20;0.20;;;27.40;92.10;;;;;;5040623;28;20235;-65
2023/07/23 12:25:17;;;;;;;0.20;0.20;;;27.50;94.60;;;;;;5069875;28;20677;-65
2023/07/23 12:27:43;;;;;;;0.10;0.10;;;27.70;92.20;;;;;;5069972;28;20607;-66
2023/07/23 12:30:09;;;;;;;0.10;0.10;;;27.50;91.70;;;;;;5053195;28;20216;-67
2023/07/23 12:32:35;;;;;;;0.20;0.10;;;26.40;93.10;;;;;;5070410;28;20314;-66
2023/07/23 12:35:01;;;;;;;0.28;0.28;;;26.30;92.90;;;;;;5052511;28;20282;-67
2023/07/23 12:37:27;;;;;;;1.30;0.60;;;26.20;92.50;;;;;;5070412;28;20212;-67
2023/07/23 12:39:56;;;;;;;0.10;0.10;;;26.60;93.70;;;;;;5071762;28;20188;-67
2023/07/23 12:42:21;;;;;;;0.10;0.10;;;27.00;93.70;;;;;;5073744;28;20713;-67
2023/07/23 12:44:47;;;;;;;0.85;0.10;;;27.40;93.90;;;;;;5073745;28;20200;-67
2023/07/23 12:47:13;;;;;;;0.30;0.30;;;27.30;92.00;;;;;;5074556;28;20659;-67
2023/07/23 12:49:40;;;;;;;0.22;0.22;;;27.60;93.30;;;;;;5073632;28;20272;-66